sensor_id;sensor_type;location;lat;lon;timestamp;P1;durP1;ratioP1;P2;durP2;ratioP2
47483;SDS011;54076;50.322;18.650;2022-10-31T00:04:06;26.60;;;11.60;;
47483;SDS011;54076;50.322;18.650;2022-10-31T00:09:09;27.80;;;11.70;;
47483;SDS011;54076;50.322;18.650;2022-10-31T00:14:10;26.60;;;11.30;;
47483;SDS011;54076;50.322;18.650;2022-10-31T00:19:11;28.00;;;10.40;;
47483;SDS011;54076;50.322;18.650;2022-10-31T00:24:12;28.80;;;11.80;;
47483;SDS011;54076;50.322;18.650;2022-10-31T00:29:13;23.20;;;11.30;;
47483;SDS011;54076;50.322;18.650;2022-10-31T00:34:14;28.00;;;10.70;;
47483;SDS011;54076;50.322;18.650;2022-10-31T00:39:15;28.80;;;11.70;;
47483;SDS011;54076;50.322;18.650;2022-10-31T00:44:16;25.80;;;10.80;;
47483;SDS011;54076;50.322;18.650;2022-10-31T00:49:17;27.30;;;11.10;;
47483;SDS011;54076;50.322;18.650;2022-10-31T00:54:18;26.40;;;11.70;;
47483;SDS011;54076;50.322;18.650;2022-10-31T00:59:18;26.10;;;11.30;;
47483;SDS011;54076;50.322;18.650;2022-10-31T01:04:19;26.40;;;11.40;;
47483;SDS011;54076;50.322;18.650;2022-10-31T01:09:20;26.70;;;11.20;;
47483;SDS011;54076;50.322;18.650;2022-10-31T01:14:21;28.90;;;11.20;;
47483;SDS011;54076;50.322;18.650;2022-10-31T01:19:22;27.70;;;10.90;;
47483;SDS011;54076;50.322;18.650;2022-10-31T01:24:23;24.50;;;10.00;;
47483;SDS011;54076;50.322;18.650;2022-10-31T01:29:24;26.90;;;11.00;;
47483;SDS011;54076;50.322;18.650;2022-10-31T01:34:25;26.30;;;10.80;;
47483;SDS011;54076;50.322;18.650;2022-10-31T01:39:26;24.20;;;10.10;;
47483;SDS011;54076;50.322;18.650;2022-10-31T01:49:42;27.60;;;10.80;;
47483;SDS011;54076;50.322;18.650;2022-10-31T01:55:09;25.90;;;10.30;;
47483;SDS011;54076;50.322;18.650;2022-10-31T02:00:14;24.20;;;10.00;;
47483;SDS011;54076;50.322;18.650;2022-10-31T02:05:18;23.80;;;10.40;;
47483;SDS011;54076;50.322;18.650;2022-10-31T02:10:23;27.50;;;10.50;;
47483;SDS011;54076;50.322;18.650;2022-10-31T02:15:25;23.70;;;11.00;;
47483;SDS011;54076;50.322;18.650;2022-10-31T02:20:33;25.30;;;10.80;;
47483;SDS011;54076;50.322;18.650;2022-10-31T02:26:05;25.00;;;10.50;;
47483;SDS011;54076;50.322;18.650;2022-10-31T02:36:59;24.60;;;10.80;;
47483;SDS011;54076;50.322;18.650;2022-10-31T02:42:32;27.00;;;10.80;;
47483;SDS011;54076;50.322;18.650;2022-10-31T02:48:09;26.70;;;10.10;;
47483;SDS011;54076;50.322;18.650;2022-10-31T02:53:14;22.50;;;10.20;;
47483;SDS011;54076;50.322;18.650;2022-10-31T02:58:19;27.90;;;10.90;;
47483;SDS011;54076;50.322;18.650;2022-10-31T03:03:31;26.20;;;10.50;;
47483;SDS011;54076;50.322;18.650;2022-10-31T03:08:47;25.10;;;11.50;;
47483;SDS011;54076;50.322;18.650;2022-10-31T03:13:59;26.20;;;10.40;;
47483;SDS011;54076;50.322;18.650;2022-10-31T03:19:08;24.90;;;10.60;;
47483;SDS011;54076;50.322;18.650;2022-10-31T03:24:12;25.80;;;11.10;;
47483;SDS011;54076;50.322;18.650;2022-10-31T03:29:16;24.70;;;10.80;;
47483;SDS011;54076;50.322;18.650;2022-10-31T03:34:20;26.80;;;11.10;;
47483;SDS011;54076;50.322;18.650;2022-10-31T03:39:22;23.90;;;10.20;;
47483;SDS011;54076;50.322;18.650;2022-10-31T03:44:24;23.80;;;10.60;;
47483;SDS011;54076;50.322;18.650;2022-10-31T03:49:26;22.00;;;10.50;;
47483;SDS011;54076;50.322;18.650;2022-10-31T03:54:42;24.70;;;9.30;;
47483;SDS011;54076;50.322;18.650;2022-10-31T03:59:49;22.80;;;9.90;;
47483;SDS011;54076;50.322;18.650;2022-10-31T04:04:54;24.20;;;10.00;;
47483;SDS011;54076;50.322;18.650;2022-10-31T04:09:55;21.40;;;9.30;;
47483;SDS011;54076;50.322;18.650;2022-10-31T04:14:58;24.90;;;10.10;;
47483;SDS011;54076;50.322;18.650;2022-10-31T04:19:59;20.40;;;9.60;;
47483;SDS011;54076;50.322;18.650;2022-10-31T04:25:01;26.80;;;10.40;;
47483;SDS011;54076;50.322;18.650;2022-10-31T04:30:03;20.40;;;9.80;;
47483;SDS011;54076;50.322;18.650;2022-10-31T04:35:05;23.50;;;9.50;;
47483;SDS011;54076;50.322;18.650;2022-10-31T04:40:07;23.70;;;10.10;;
47483;SDS011;54076;50.322;18.650;2022-10-31T04:45:08;20.60;;;9.20;;
47483;SDS011;54076;50.322;18.650;2022-10-31T04:50:09;21.40;;;9.70;;
47483;SDS011;54076;50.322;18.650;2022-10-31T04:55:11;22.60;;;10.20;;
47483;SDS011;54076;50.322;18.650;2022-10-31T05:00:14;23.60;;;10.00;;
47483;SDS011;54076;50.322;18.650;2022-10-31T05:05:19;21.60;;;9.70;;
47483;SDS011;54076;50.322;18.650;2022-10-31T05:10:25;22.10;;;9.70;;
47483;SDS011;54076;50.322;18.650;2022-10-31T05:15:28;21.30;;;9.60;;
47483;SDS011;54076;50.322;18.650;2022-10-31T05:20:29;22.30;;;9.50;;
47483;SDS011;54076;50.322;18.650;2022-10-31T05:25:31;23.90;;;11.10;;
47483;SDS011;54076;50.322;18.650;2022-10-31T05:30:32;25.40;;;11.00;;
47483;SDS011;54076;50.322;18.650;2022-10-31T05:35:34;20.10;;;9.50;;
47483;SDS011;54076;50.322;18.650;2022-10-31T05:40:35;20.70;;;9.50;;
47483;SDS011;54076;50.322;18.650;2022-10-31T05:45:36;25.00;;;10.00;;
47483;SDS011;54076;50.322;18.650;2022-10-31T05:50:37;21.20;;;8.90;;
47483;SDS011;54076;50.322;18.650;2022-10-31T05:55:38;21.80;;;9.40;;
47483;SDS011;54076;50.322;18.650;2022-10-31T06:00:41;22.70;;;10.50;;
47483;SDS011;54076;50.322;18.650;2022-10-31T06:05:42;22.70;;;11.00;;
47483;SDS011;54076;50.322;18.650;2022-10-31T06:10:43;22.20;;;9.70;;
47483;SDS011;54076;50.322;18.650;2022-10-31T06:15:44;22.50;;;11.00;;
47483;SDS011;54076;50.322;18.650;2022-10-31T06:20:45;23.00;;;10.30;;
47483;SDS011;54076;50.322;18.650;2022-10-31T06:25:49;24.50;;;11.10;;
47483;SDS011;54076;50.322;18.650;2022-10-31T06:30:51;24.80;;;11.10;;
47483;SDS011;54076;50.322;18.650;2022-10-31T06:35:52;24.30;;;11.00;;
47483;SDS011;54076;50.322;18.650;2022-10-31T06:40:53;22.70;;;11.20;;
47483;SDS011;54076;50.322;18.650;2022-10-31T06:45:54;20.80;;;9.70;;
47483;SDS011;54076;50.322;18.650;2022-10-31T06:50:59;21.60;;;10.20;;
47483;SDS011;54076;50.322;18.650;2022-10-31T06:56:01;25.70;;;10.60;;
47483;SDS011;54076;50.322;18.650;2022-10-31T07:01:02;21.20;;;10.40;;
47483;SDS011;54076;50.322;18.650;2022-10-31T07:06:03;26.50;;;10.80;;
47483;SDS011;54076;50.322;18.650;2022-10-31T07:11:04;24.80;;;10.50;;
47483;SDS011;54076;50.322;18.650;2022-10-31T07:16:06;26.70;;;10.60;;
47483;SDS011;54076;50.322;18.650;2022-10-31T07:21:07;23.90;;;11.00;;
47483;SDS011;54076;50.322;18.650;2022-10-31T07:26:09;25.00;;;11.50;;
47483;SDS011;54076;50.322;18.650;2022-10-31T07:31:11;24.40;;;10.70;;
47483;SDS011;54076;50.322;18.650;2022-10-31T07:36:11;23.50;;;11.20;;
47483;SDS011;54076;50.322;18.650;2022-10-31T07:41:12;24.40;;;11.00;;
47483;SDS011;54076;50.322;18.650;2022-10-31T07:46:13;23.20;;;11.10;;
47483;SDS011;54076;50.322;18.650;2022-10-31T07:51:14;21.60;;;10.00;;
47483;SDS011;54076;50.322;18.650;2022-10-31T07:56:15;24.20;;;10.50;;
47483;SDS011;54076;50.322;18.650;2022-10-31T08:01:16;22.90;;;10.20;;
47483;SDS011;54076;50.322;18.650;2022-10-31T08:06:17;22.20;;;9.90;;
47483;SDS011;54076;50.322;18.650;2022-10-31T08:11:18;21.10;;;10.10;;
47483;SDS011;54076;50.322;18.650;2022-10-31T08:16:19;20.90;;;9.40;;
47483;SDS011;54076;50.322;18.650;2022-10-31T08:21:20;21.30;;;9.50;;
47483;SDS011;54076;50.322;18.650;2022-10-31T08:26:20;22.00;;;9.10;;
47483;SDS011;54076;50.322;18.650;2022-10-31T08:31:22;18.60;;;9.10;;
47483;SDS011;54076;50.322;18.650;2022-10-31T08:36:23;20.10;;;8.70;;
47483;SDS011;54076;50.322;18.650;2022-10-31T08:41:24;20.40;;;9.30;;
47483;SDS011;54076;50.322;18.650;2022-10-31T08:46:25;20.90;;;9.20;;
47483;SDS011;54076;50.322;18.650;2022-10-31T08:51:26;18.60;;;8.70;;
47483;SDS011;54076;50.322;18.650;2022-10-31T08:56:27;19.20;;;8.00;;
47483;SDS011;54076;50.322;18.650;2022-10-31T09:01:28;17.90;;;8.50;;
47483;SDS011;54076;50.322;18.650;2022-10-31T09:06:29;17.20;;;8.10;;
47483;SDS011;54076;50.322;18.650;2022-10-31T09:11:30;15.30;;;7.30;;
47483;SDS011;54076;50.322;18.650;2022-10-31T09:16:31;14.40;;;7.10;;
47483;SDS011;54076;50.322;18.650;2022-10-31T09:21:32;14.70;;;7.00;;
47483;SDS011;54076;50.322;18.650;2022-10-31T09:26:33;19.10;;;7.60;;
47483;SDS011;54076;50.322;18.650;2022-10-31T09:31:35;18.40;;;7.60;;
47483;SDS011;54076;50.322;18.650;2022-10-31T09:36:37;13.60;;;7.10;;
47483;SDS011;54076;50.322;18.650;2022-10-31T09:53:16;18.20;;;7.50;;
47483;SDS011;54076;50.322;18.650;2022-10-31T09:58:29;18.60;;;7.00;;
47483;SDS011;54076;50.322;18.650;2022-10-31T10:03:45;15.60;;;7.20;;
47483;SDS011;54076;50.322;18.650;2022-10-31T10:08:50;14.00;;;7.20;;
47483;SDS011;54076;50.322;18.650;2022-10-31T10:25:22;15.50;;;6.70;;
47483;SDS011;54076;50.322;18.650;2022-10-31T10:35:46;14.30;;;6.10;;
47483;SDS011;54076;50.322;18.650;2022-10-31T10:40:54;13.10;;;5.30;;
47483;SDS011;54076;50.322;18.650;2022-10-31T10:51:37;15.30;;;6.40;;
47483;SDS011;54076;50.322;18.650;2022-10-31T11:02:21;16.60;;;7.20;;
47483;SDS011;54076;50.322;18.650;2022-10-31T11:07:24;11.20;;;5.30;;
47483;SDS011;54076;50.322;18.650;2022-10-31T11:12:29;12.60;;;4.80;;
47483;SDS011;54076;50.322;18.650;2022-10-31T11:17:37;12.00;;;5.30;;
47483;SDS011;54076;50.322;18.650;2022-10-31T11:22:42;13.20;;;5.60;;
47483;SDS011;54076;50.322;18.650;2022-10-31T11:27:45;14.60;;;5.30;;
47483;SDS011;54076;50.322;18.650;2022-10-31T11:32:48;12.00;;;5.50;;
47483;SDS011;54076;50.322;18.650;2022-10-31T11:37:54;16.20;;;5.60;;
47483;SDS011;54076;50.322;18.650;2022-10-31T11:42:59;11.50;;;5.00;;
47483;SDS011;54076;50.322;18.650;2022-10-31T11:48:01;15.60;;;5.80;;
47483;SDS011;54076;50.322;18.650;2022-10-31T11:53:03;13.30;;;4.70;;
47483;SDS011;54076;50.322;18.650;2022-10-31T11:58:23;13.10;;;4.80;;
47483;SDS011;54076;50.322;18.650;2022-10-31T12:08:36;14.70;;;5.50;;
47483;SDS011;54076;50.322;18.650;2022-10-31T12:52:11;13.90;;;3.90;;
47483;SDS011;54076;50.322;18.650;2022-10-31T12:57:32;11.00;;;4.30;;
47483;SDS011;54076;50.322;18.650;2022-10-31T13:02:44;10.90;;;4.30;;
47483;SDS011;54076;50.322;18.650;2022-10-31T13:08:20;14.60;;;4.70;;
47483;SDS011;54076;50.322;18.650;2022-10-31T13:13:29;11.40;;;5.00;;
47483;SDS011;54076;50.322;18.650;2022-10-31T13:19:00;9.90;;;4.40;;
47483;SDS011;54076;50.322;18.650;2022-10-31T13:24:10;12.20;;;5.00;;
47483;SDS011;54076;50.322;18.650;2022-10-31T13:29:20;13.00;;;4.70;;
47483;SDS011;54076;50.322;18.650;2022-10-31T13:34:36;14.20;;;5.70;;
47483;SDS011;54076;50.322;18.650;2022-10-31T13:45:33;12.30;;;5.40;;
47483;SDS011;54076;50.322;18.650;2022-10-31T13:50:34;11.80;;;5.40;;
47483;SDS011;54076;50.322;18.650;2022-10-31T13:55:39;17.90;;;5.50;;
47483;SDS011;54076;50.322;18.650;2022-10-31T14:00:43;14.70;;;5.40;;
47483;SDS011;54076;50.322;18.650;2022-10-31T14:05:52;15.00;;;6.30;;
47483;SDS011;54076;50.322;18.650;2022-10-31T14:10:54;16.90;;;5.50;;
47483;SDS011;54076;50.322;18.650;2022-10-31T14:16:02;12.40;;;6.30;;
47483;SDS011;54076;50.322;18.650;2022-10-31T14:31:39;13.50;;;6.50;;
47483;SDS011;54076;50.322;18.650;2022-10-31T14:52:46;16.10;;;6.10;;
47483;SDS011;54076;50.322;18.650;2022-10-31T14:57:59;15.40;;;5.70;;
47483;SDS011;54076;50.322;18.650;2022-10-31T15:03:05;15.00;;;5.90;;
47483;SDS011;54076;50.322;18.650;2022-10-31T15:08:50;17.20;;;5.80;;
47483;SDS011;54076;50.322;18.650;2022-10-31T15:13:55;16.70;;;6.00;;
47483;SDS011;54076;50.322;18.650;2022-10-31T15:19:03;13.20;;;5.80;;
47483;SDS011;54076;50.322;18.650;2022-10-31T15:24:11;15.50;;;5.90;;
47483;SDS011;54076;50.322;18.650;2022-10-31T15:29:20;14.70;;;6.20;;
47483;SDS011;54076;50.322;18.650;2022-10-31T15:39:37;15.40;;;7.00;;
47483;SDS011;54076;50.322;18.650;2022-10-31T15:44:40;17.50;;;7.00;;
47483;SDS011;54076;50.322;18.650;2022-10-31T15:49:53;18.20;;;7.00;;
47483;SDS011;54076;50.322;18.650;2022-10-31T16:00:28;21.40;;;7.60;;
47483;SDS011;54076;50.322;18.650;2022-10-31T16:05:51;25.20;;;7.60;;
47483;SDS011;54076;50.322;18.650;2022-10-31T16:10:54;18.40;;;7.50;;
47483;SDS011;54076;50.322;18.650;2022-10-31T16:16:03;21.90;;;7.60;;
47483;SDS011;54076;50.322;18.650;2022-10-31T16:21:11;21.10;;;7.80;;
47483;SDS011;54076;50.322;18.650;2022-10-31T16:26:17;15.60;;;7.80;;
47483;SDS011;54076;50.322;18.650;2022-10-31T16:31:27;16.70;;;7.50;;
47483;SDS011;54076;50.322;18.650;2022-10-31T16:36:32;21.10;;;7.00;;
47483;SDS011;54076;50.322;18.650;2022-10-31T16:41:40;18.00;;;6.40;;
47483;SDS011;54076;50.322;18.650;2022-10-31T16:46:42;18.30;;;7.90;;
47483;SDS011;54076;50.322;18.650;2022-10-31T16:51:43;22.40;;;7.90;;
47483;SDS011;54076;50.322;18.650;2022-10-31T16:56:44;19.70;;;8.20;;
47483;SDS011;54076;50.322;18.650;2022-10-31T17:01:47;18.30;;;7.70;;
47483;SDS011;54076;50.322;18.650;2022-10-31T17:06:52;18.50;;;7.40;;
47483;SDS011;54076;50.322;18.650;2022-10-31T17:11:54;17.40;;;7.20;;
47483;SDS011;54076;50.322;18.650;2022-10-31T17:16:55;18.30;;;7.70;;
47483;SDS011;54076;50.322;18.650;2022-10-31T17:21:56;20.20;;;7.70;;
47483;SDS011;54076;50.322;18.650;2022-10-31T17:26:57;18.20;;;7.20;;
47483;SDS011;54076;50.322;18.650;2022-10-31T17:31:58;15.30;;;6.90;;
47483;SDS011;54076;50.322;18.650;2022-10-31T17:37:00;19.10;;;7.30;;
47483;SDS011;54076;50.322;18.650;2022-10-31T17:42:00;20.10;;;7.70;;
47483;SDS011;54076;50.322;18.650;2022-10-31T17:47:01;17.00;;;7.50;;
47483;SDS011;54076;50.322;18.650;2022-10-31T17:52:04;15.90;;;7.10;;
47483;SDS011;54076;50.322;18.650;2022-10-31T17:57:05;23.90;;;10.70;;
47483;SDS011;54076;50.322;18.650;2022-10-31T18:02:08;19.40;;;9.00;;
47483;SDS011;54076;50.322;18.650;2022-10-31T18:07:10;18.00;;;8.40;;
47483;SDS011;54076;50.322;18.650;2022-10-31T18:12:11;20.30;;;7.70;;
47483;SDS011;54076;50.322;18.650;2022-10-31T18:17:12;16.40;;;7.00;;
47483;SDS011;54076;50.322;18.650;2022-10-31T18:22:13;18.20;;;7.70;;
47483;SDS011;54076;50.322;18.650;2022-10-31T18:27:14;19.90;;;8.80;;
47483;SDS011;54076;50.322;18.650;2022-10-31T18:32:15;15.90;;;7.60;;
47483;SDS011;54076;50.322;18.650;2022-10-31T18:37:16;20.10;;;7.70;;
47483;SDS011;54076;50.322;18.650;2022-10-31T18:42:16;22.70;;;8.90;;
47483;SDS011;54076;50.322;18.650;2022-10-31T18:47:17;21.90;;;9.60;;
47483;SDS011;54076;50.322;18.650;2022-10-31T18:52:19;19.80;;;8.70;;
47483;SDS011;54076;50.322;18.650;2022-10-31T18:57:20;23.80;;;9.50;;
47483;SDS011;54076;50.322;18.650;2022-10-31T19:02:21;19.60;;;9.60;;
47483;SDS011;54076;50.322;18.650;2022-10-31T19:07:22;21.70;;;9.40;;
47483;SDS011;54076;50.322;18.650;2022-10-31T19:12:23;24.30;;;10.00;;
47483;SDS011;54076;50.322;18.650;2022-10-31T19:17:24;21.20;;;9.50;;
47483;SDS011;54076;50.322;18.650;2022-10-31T19:22:25;24.40;;;9.10;;
47483;SDS011;54076;50.322;18.650;2022-10-31T19:27:26;21.40;;;9.30;;
47483;SDS011;54076;50.322;18.650;2022-10-31T19:32:28;23.50;;;10.50;;
47483;SDS011;54076;50.322;18.650;2022-10-31T19:37:29;20.40;;;9.60;;
47483;SDS011;54076;50.322;18.650;2022-10-31T19:42:30;21.00;;;9.10;;
47483;SDS011;54076;50.322;18.650;2022-10-31T19:47:32;19.60;;;9.30;;
47483;SDS011;54076;50.322;18.650;2022-10-31T19:52:33;28.40;;;10.10;;
47483;SDS011;54076;50.322;18.650;2022-10-31T19:57:35;38.00;;;15.20;;
47483;SDS011;54076;50.322;18.650;2022-10-31T20:02:36;32.90;;;13.10;;
47483;SDS011;54076;50.322;18.650;2022-10-31T20:07:37;28.90;;;13.30;;
47483;SDS011;54076;50.322;18.650;2022-10-31T20:12:38;46.30;;;20.90;;
47483;SDS011;54076;50.322;18.650;2022-10-31T20:17:39;52.90;;;21.40;;
47483;SDS011;54076;50.322;18.650;2022-10-31T20:22:40;62.40;;;27.10;;
47483;SDS011;54076;50.322;18.650;2022-10-31T20:27:42;74.50;;;32.80;;
47483;SDS011;54076;50.322;18.650;2022-10-31T20:32:42;73.20;;;33.50;;
47483;SDS011;54076;50.322;18.650;2022-10-31T20:37:43;73.50;;;32.70;;
47483;SDS011;54076;50.322;18.650;2022-10-31T20:42:44;72.40;;;31.10;;
47483;SDS011;54076;50.322;18.650;2022-10-31T20:47:45;74.20;;;33.30;;
47483;SDS011;54076;50.322;18.650;2022-10-31T20:52:46;79.40;;;35.20;;
47483;SDS011;54076;50.322;18.650;2022-10-31T20:57:50;71.00;;;29.70;;
47483;SDS011;54076;50.322;18.650;2022-10-31T21:02:58;74.80;;;30.20;;
47483;SDS011;54076;50.322;18.650;2022-10-31T21:08:01;64.90;;;29.30;;
47483;SDS011;54076;50.322;18.650;2022-10-31T21:13:08;57.30;;;27.00;;
47483;SDS011;54076;50.322;18.650;2022-10-31T21:18:09;50.90;;;24.80;;
47483;SDS011;54076;50.322;18.650;2022-10-31T21:23:12;46.80;;;21.00;;
47483;SDS011;54076;50.322;18.650;2022-10-31T21:28:16;48.10;;;21.40;;
47483;SDS011;54076;50.322;18.650;2022-10-31T21:33:20;53.10;;;21.70;;
47483;SDS011;54076;50.322;18.650;2022-10-31T21:38:24;51.70;;;22.80;;
47483;SDS011;54076;50.322;18.650;2022-10-31T21:43:27;54.60;;;25.50;;
47483;SDS011;54076;50.322;18.650;2022-10-31T21:48:28;61.50;;;26.60;;
47483;SDS011;54076;50.322;18.650;2022-10-31T21:53:30;53.30;;;24.90;;
47483;SDS011;54076;50.322;18.650;2022-10-31T21:58:50;66.80;;;28.70;;
47483;SDS011;54076;50.322;18.650;2022-10-31T22:03:53;67.30;;;31.10;;
47483;SDS011;54076;50.322;18.650;2022-10-31T22:08:54;65.60;;;28.60;;
47483;SDS011;54076;50.322;18.650;2022-10-31T22:13:59;74.00;;;30.40;;
47483;SDS011;54076;50.322;18.650;2022-10-31T22:19:01;70.80;;;30.50;;
47483;SDS011;54076;50.322;18.650;2022-10-31T22:24:05;66.80;;;30.20;;
47483;SDS011;54076;50.322;18.650;2022-10-31T22:29:15;71.90;;;30.80;;
47483;SDS011;54076;50.322;18.650;2022-10-31T22:34:18;69.20;;;29.20;;
47483;SDS011;54076;50.322;18.650;2022-10-31T22:39:19;64.10;;;28.50;;
47483;SDS011;54076;50.322;18.650;2022-10-31T22:44:20;75.20;;;30.10;;
47483;SDS011;54076;50.322;18.650;2022-10-31T22:49:21;66.20;;;30.60;;
47483;SDS011;54076;50.322;18.650;2022-10-31T22:54:22;72.70;;;31.20;;
47483;SDS011;54076;50.322;18.650;2022-10-31T22:59:23;63.20;;;28.50;;
47483;SDS011;54076;50.322;18.650;2022-10-31T23:04:24;73.70;;;29.20;;
47483;SDS011;54076;50.322;18.650;2022-10-31T23:09:25;70.50;;;29.80;;
47483;SDS011;54076;50.322;18.650;2022-10-31T23:14:26;73.20;;;30.90;;
47483;SDS011;54076;50.322;18.650;2022-10-31T23:19:28;74.80;;;30.60;;
47483;SDS011;54076;50.322;18.650;2022-10-31T23:24:38;69.70;;;30.30;;
47483;SDS011;54076;50.322;18.650;2022-10-31T23:29:50;74.30;;;31.40;;
47483;SDS011;54076;50.322;18.650;2022-10-31T23:34:55;69.60;;;30.70;;
47483;SDS011;54076;50.322;18.650;2022-10-31T23:39:58;86.80;;;34.00;;
47483;SDS011;54076;50.322;18.650;2022-10-31T23:44:59;83.20;;;35.30;;
47483;SDS011;54076;50.322;18.650;2022-10-31T23:50:00;80.80;;;33.60;;
47483;SDS011;54076;50.322;18.650;2022-10-31T23:55:01;75.40;;;32.90;;
